createdAt,value
2022-08-11T00:02:07.143Z,19.91
2022-08-11T00:04:47.076Z,19.86
2022-08-11T00:07:18.945Z,19.85
2022-08-11T00:09:51.628Z,19.80
2022-08-11T00:12:23.206Z,19.78
2022-08-11T00:14:59.511Z,19.76
2022-08-11T00:17:32.914Z,19.74
2022-08-11T00:20:11.787Z,19.73
2022-08-11T00:22:47.608Z,19.69
2022-08-11T00:25:19.904Z,19.68
2022-08-11T00:27:51.535Z,19.64
2022-08-11T00:30:23.736Z,19.60
2022-08-11T00:32:58.821Z,19.58
2022-08-11T00:35:55.702Z,19.56
2022-08-11T00:38:25.191Z,19.53
2022-08-11T00:41:04.645Z,19.50
2022-08-11T00:44:05.707Z,19.48
2022-08-11T00:46:52.544Z,19.43
2022-08-11T00:49:30.539Z,19.39
2022-08-11T00:52:06.392Z,19.35
2022-08-11T00:54:56.863Z,19.29
2022-08-11T00:57:46.936Z,19.26
2022-08-11T01:00:23.375Z,19.22
2022-08-11T01:02:59.922Z,19.19
2022-08-11T01:05:46.385Z,19.18
2022-08-11T01:08:36.955Z,19.16
2022-08-11T01:11:27.446Z,19.08
2022-08-11T01:13:58.915Z,19.05
2022-08-11T01:16:46.145Z,19.02
2022-08-11T01:19:30.002Z,19.00
2022-08-11T01:22:04.211Z,19.01
2022-08-11T01:24:59.803Z,19.00
2022-08-11T01:27:40.653Z,18.97
2022-08-11T01:30:33.593Z,18.91
2022-08-11T01:33:09.331Z,18.86
2022-08-11T01:36:00.923Z,18.81
2022-08-11T01:38:35.407Z,18.79
2022-08-11T01:41:25.643Z,18.77
2022-08-11T01:44:18.837Z,18.72
2022-08-11T01:47:36.848Z,18.71
2022-08-11T01:50:13.319Z,18.68
2022-08-11T01:52:56.582Z,18.63
2022-08-11T01:55:34.129Z,18.59
2022-08-11T01:58:40.755Z,18.55
2022-08-11T02:01:35.301Z,18.48
2022-08-11T02:04:09.608Z,18.45
2022-08-11T02:06:59.698Z,18.42
2022-08-11T02:09:49.368Z,18.39
2022-08-11T02:12:24.106Z,18.35
2022-08-11T02:15:08.649Z,18.35
2022-08-11T02:17:58.687Z,18.30
2022-08-11T02:20:55.746Z,18.29
2022-08-11T02:24:06.625Z,18.24
2022-08-11T02:26:44.633Z,18.21
2022-08-11T02:29:19.817Z,18.19
2022-08-11T02:32:30.006Z,18.15
2022-08-11T02:35:08.846Z,18.11
2022-08-11T02:37:51.209Z,18.08
2022-08-11T02:40:22.639Z,18.04
2022-08-11T02:43:00.506Z,18.02
2022-08-11T02:45:39.802Z,17.99
2022-08-11T02:48:48.181Z,17.98
2022-08-11T02:51:29.245Z,18.01
2022-08-11T02:54:09.850Z,17.98
2022-08-11T02:56:44.720Z,17.93
2022-08-11T02:59:38.149Z,17.90
2022-08-11T03:02:23.434Z,17.88
2022-08-11T03:05:12.020Z,17.84
2022-08-11T03:07:46.524Z,17.81
2022-08-11T03:10:28.316Z,17.80
2022-08-11T03:13:38.617Z,17.76
2022-08-11T03:16:37.822Z,17.72
2022-08-11T03:19:18.195Z,17.72
2022-08-11T03:22:08.445Z,17.71
2022-08-11T03:24:40.065Z,17.70
2022-08-11T03:27:30.472Z,17.67
2022-08-11T03:30:02.148Z,17.63
2022-08-11T03:32:41.070Z,17.57
2022-08-11T03:35:21.375Z,17.54
2022-08-11T03:38:02.486Z,17.54
2022-08-11T03:42:02.942Z,17.55
2022-08-11T03:44:08.987Z,17.52
2022-08-11T03:46:58.952Z,17.52
2022-08-11T03:49:49.173Z,17.49
2022-08-11T03:52:28.612Z,17.47
2022-08-11T03:55:14.551Z,17.44
2022-08-11T03:58:04.677Z,17.40
2022-08-11T04:01:08.035Z,17.41
2022-08-11T04:03:53.373Z,17.40
2022-08-11T04:06:40.211Z,17.42
2022-08-11T04:09:46.386Z,17.42
2022-08-11T04:12:37.157Z,17.43
2022-08-11T04:15:27.391Z,17.39
2022-08-11T04:18:01.867Z,17.41
2022-08-11T04:20:36.962Z,17.39
2022-08-11T04:24:35.125Z,17.40
2022-08-11T04:26:21.014Z,17.44
2022-08-11T04:29:02.087Z,17.52
2022-08-11T04:31:52.789Z,17.53
2022-08-11T04:34:35.674Z,17.59
2022-08-11T04:37:30.552Z,17.61
2022-08-11T04:40:20.972Z,17.69
2022-08-11T04:43:23.534Z,17.78
2022-08-11T04:46:13.715Z,17.91
2022-08-11T04:49:03.910Z,18.01
2022-08-11T04:51:53.730Z,18.15
2022-08-11T04:55:03.031Z,18.27
2022-08-11T04:57:59.367Z,18.42
2022-08-11T05:00:54.778Z,18.60
2022-08-11T05:03:39.176Z,18.75
2022-08-11T05:06:29.903Z,18.92
2022-08-11T05:09:07.396Z,19.10
2022-08-11T05:11:38.841Z,19.22
2022-08-11T05:14:29.060Z,19.36
2022-08-11T05:17:27.037Z,19.60
2022-08-11T05:20:17.227Z,19.88
2022-08-11T05:23:08.888Z,20.15
2022-08-11T05:26:25.413Z,20.41
2022-08-11T05:29:19.706Z,20.67
2022-08-11T05:32:16.521Z,20.85
2022-08-11T05:34:54.208Z,21.06
2022-08-11T05:37:38.204Z,21.32
2022-08-11T05:40:29.678Z,21.59
2022-08-11T05:43:32.164Z,21.84
2022-08-11T05:46:23.911Z,22.02
2022-08-11T05:49:14.004Z,22.25
2022-08-11T05:52:05.701Z,22.40
2022-08-11T05:55:07.075Z,22.55
2022-08-11T05:57:51.279Z,22.91
2022-08-11T06:00:24.374Z,23.27
2022-08-11T06:03:00.934Z,23.54
2022-08-11T06:05:43.253Z,23.85
2022-08-11T06:08:15.879Z,24.11
2022-08-11T06:10:47.673Z,24.35
2022-08-11T06:13:22.655Z,24.60
2022-08-11T06:15:55.932Z,24.85
2022-08-11T06:18:28.228Z,25.09
2022-08-11T06:21:01.970Z,25.32
2022-08-11T06:23:35.943Z,25.51
2022-08-11T06:26:09.118Z,25.75
2022-08-11T06:28:45.069Z,26.03
2022-08-11T06:31:24.151Z,26.26
2022-08-11T06:33:55.657Z,26.50
2022-08-11T06:36:34.314Z,26.73
2022-08-11T06:39:26.918Z,26.93
2022-08-11T06:42:10.886Z,27.15
2022-08-11T06:44:58.281Z,27.30
2022-08-11T06:47:31.317Z,27.47
2022-08-11T06:50:21.748Z,27.76
2022-08-11T06:52:53.805Z,27.96
2022-08-11T06:55:57.375Z,28.05
2022-08-11T06:58:51.208Z,28.25
2022-08-11T07:01:49.639Z,28.42
2022-08-11T07:04:29.220Z,28.72
2022-08-11T07:07:42.881Z,29.05
2022-08-11T07:10:41.227Z,29.35
2022-08-11T07:13:44.433Z,29.54
2022-08-11T07:16:26.452Z,29.86
2022-08-11T07:19:26.893Z,30.07
2022-08-11T07:22:19.213Z,29.83
2022-08-11T07:25:15.261Z,29.80
2022-08-11T07:28:07.068Z,30.13
2022-08-11T07:30:40.353Z,30.23
2022-08-11T07:34:05.270Z,30.29
2022-08-11T07:36:05.776Z,30.50
2022-08-11T07:38:47.195Z,29.70
2022-08-11T07:41:20.469Z,29.86
2022-08-11T07:43:54.461Z,30.22
2022-08-11T07:46:44.740Z,30.32
2022-08-11T07:49:35.066Z,30.51
2022-08-11T07:52:25.824Z,30.70
2022-08-11T07:54:59.399Z,30.77
2022-08-11T07:58:16.099Z,30.76
2022-08-11T08:01:22.910Z,29.67
2022-08-11T08:04:13.006Z,29.55
2022-08-11T08:07:03.829Z,28.90
2022-08-11T08:09:54.688Z,29.02
2022-08-11T08:12:45.025Z,29.07
2022-08-11T08:15:35.844Z,28.70
2022-08-11T08:18:26.210Z,28.73
2022-08-11T08:21:12.187Z,28.82
2022-08-11T08:23:47.640Z,28.88
2022-08-11T08:26:48.304Z,29.18
2022-08-11T08:29:42.187Z,28.88
2022-08-11T08:32:16.319Z,28.72
2022-08-11T08:34:51.067Z,28.74
2022-08-11T08:37:45.407Z,29.01
2022-08-11T08:40:21.188Z,29.36
2022-08-11T08:42:55.043Z,29.45
2022-08-11T08:45:27.433Z,29.53
2022-08-11T08:48:04.792Z,29.39
2022-08-11T08:51:03.259Z,29.47
2022-08-11T08:53:37.195Z,29.62
2022-08-11T08:56:12.092Z,29.71
2022-08-11T08:59:04.808Z,29.51
2022-08-11T09:01:38.869Z,29.66
2022-08-11T09:04:20.393Z,30.06
2022-08-11T09:06:53.462Z,29.92
2022-08-11T09:09:25.774Z,30.14
2022-08-11T09:11:57.774Z,30.08
2022-08-11T09:14:54.821Z,30.09
2022-08-11T09:17:30.229Z,29.68
2022-08-11T09:20:07.534Z,29.37
2022-08-11T09:26:14.924Z,28.94
2022-08-11T09:28:52.370Z,29.16
2022-08-11T09:31:26.785Z,29.01
2022-08-11T09:33:58.752Z,29.38
2022-08-11T09:36:49.540Z,29.42
2022-08-11T09:39:39.807Z,29.22
2022-08-11T09:42:16.709Z,29.25
2022-08-11T09:44:54.866Z,29.47
2022-08-11T09:47:28.232Z,29.33
2022-08-11T09:50:01.895Z,29.13
2022-08-11T09:52:36.453Z,29.05
2022-08-11T09:55:11.302Z,29.12
2022-08-11T09:58:05.390Z,29.23
2022-08-11T10:00:38.062Z,29.13
2022-08-11T10:03:14.191Z,28.73
2022-08-11T10:06:07.994Z,28.61
2022-08-11T10:08:42.060Z,28.77
2022-08-11T10:11:15.860Z,28.61
2022-08-11T10:14:33.579Z,28.52
2022-08-11T10:17:06.799Z,29.03
2022-08-11T10:19:39.063Z,29.08
2022-08-11T10:22:36.782Z,29.56
2022-08-11T10:25:30.099Z,29.90
2022-08-11T10:28:16.810Z,29.77
2022-08-11T10:31:17.138Z,29.95
2022-08-11T10:34:03.898Z,29.72
2022-08-11T10:37:04.000Z,29.74
2022-08-11T10:39:36.043Z,30.30
2022-08-11T10:42:47.777Z,30.68
2022-08-11T10:45:40.288Z,30.62
2022-08-11T10:48:15.632Z,30.23
2022-08-11T10:51:12.564Z,29.99
2022-08-11T10:54:11.610Z,29.97
2022-08-11T10:57:03.146Z,29.30
2022-08-11T10:59:38.150Z,28.80
2022-08-11T11:02:16.195Z,28.77
2022-08-11T11:04:59.894Z,29.21
2022-08-11T11:07:51.939Z,29.60
2022-08-11T11:10:25.560Z,29.63
2022-08-11T11:13:16.777Z,29.77
2022-08-11T11:16:07.260Z,29.72
2022-08-11T11:18:38.927Z,29.59
2022-08-11T11:21:14.527Z,29.41
2022-08-11T11:24:05.038Z,29.24
2022-08-11T11:26:55.886Z,28.97
2022-08-11T11:29:27.357Z,28.56
2022-08-11T11:32:04.980Z,28.44
2022-08-11T11:34:53.798Z,28.65
2022-08-11T11:37:26.003Z,28.39
2022-08-11T11:40:02.950Z,28.40
2022-08-11T11:42:35.018Z,28.51
2022-08-11T11:45:07.013Z,28.67
2022-08-11T11:47:38.950Z,28.56
2022-08-11T11:50:11.219Z,28.31
2022-08-11T11:52:43.760Z,28.16
2022-08-11T11:55:15.356Z,28.09
2022-08-11T11:58:09.689Z,28.22
2022-08-11T12:01:10.440Z,28.30
2022-08-11T12:03:46.384Z,27.97
2022-08-11T12:06:18.934Z,27.79
2022-08-11T12:08:52.860Z,27.48
2022-08-11T12:11:44.033Z,27.34
2022-08-11T12:14:17.288Z,27.21
2022-08-11T12:16:49.042Z,27.08
2022-08-11T12:19:24.756Z,27.07
2022-08-11T12:22:15.436Z,27.07
2022-08-11T12:25:05.722Z,27.18
2022-08-11T12:27:40.964Z,27.20
2022-08-11T12:30:15.210Z,27.12
2022-08-11T12:32:47.101Z,27.18
2022-08-11T12:35:18.731Z,27.14
2022-08-11T12:38:00.452Z,27.21
2022-08-11T12:41:14.819Z,27.54
2022-08-11T12:44:06.593Z,27.74
2022-08-11T12:46:40.437Z,27.74
2022-08-11T12:49:43.214Z,27.95
2022-08-11T12:52:26.171Z,28.03
2022-08-11T12:55:13.027Z,28.15
2022-08-11T12:58:05.495Z,28.33
2022-08-11T13:00:55.825Z,28.43
2022-08-11T13:03:52.613Z,28.26
2022-08-11T13:06:28.698Z,28.47
2022-08-11T13:09:02.419Z,28.45
2022-08-11T13:11:55.757Z,28.27
2022-08-11T13:14:29.970Z,28.03
2022-08-11T13:17:20.830Z,27.98
2022-08-11T13:20:13.258Z,27.84
2022-08-11T13:22:48.190Z,27.77
2022-08-11T13:25:22.360Z,27.62
2022-08-11T13:27:55.903Z,27.46
2022-08-11T13:30:51.408Z,27.48
2022-08-11T13:33:23.173Z,27.66
2022-08-11T13:35:55.894Z,27.78
2022-08-11T13:38:28.103Z,27.90
2022-08-11T13:41:00.632Z,27.74
2022-08-11T13:43:32.190Z,27.63
2022-08-11T13:46:20.430Z,27.53
2022-08-11T13:48:52.979Z,27.54
2022-08-11T13:51:35.847Z,27.57
2022-08-11T13:54:09.267Z,27.38
2022-08-11T13:56:43.118Z,27.47
2022-08-11T13:59:15.592Z,27.44
2022-08-11T14:02:20.533Z,27.46
2022-08-11T14:04:42.709Z,27.59
2022-08-11T14:07:17.190Z,27.48
2022-08-11T14:09:54.003Z,27.60
2022-08-11T14:12:50.856Z,27.69
2022-08-11T14:15:25.257Z,27.58
2022-08-11T14:18:01.682Z,27.34
2022-08-11T14:20:53.099Z,27.35
2022-08-11T14:23:27.615Z,27.43
2022-08-11T14:26:18.546Z,27.42
2022-08-11T14:28:53.304Z,27.54
2022-08-11T14:31:25.641Z,27.45
2022-08-11T14:34:02.082Z,27.61
2022-08-11T14:36:42.025Z,27.76
2022-08-11T14:39:17.202Z,27.84
2022-08-11T14:42:12.880Z,27.93
2022-08-11T14:45:07.924Z,27.93
2022-08-11T14:47:41.312Z,27.85
2022-08-11T14:50:18.401Z,27.72
2022-08-11T14:52:50.079Z,27.80
2022-08-11T14:55:42.023Z,27.77
2022-08-11T14:58:16.101Z,27.61
2022-08-11T15:00:54.633Z,27.44
2022-08-11T15:03:28.371Z,27.39
2022-08-11T15:06:02.285Z,27.37
2022-08-11T15:08:53.895Z,27.54
2022-08-11T15:11:47.401Z,27.37
2022-08-11T15:14:39.481Z,27.33
2022-08-11T15:17:13.689Z,27.46
2022-08-11T15:20:05.377Z,27.58
2022-08-11T15:22:55.715Z,27.39
2022-08-11T15:25:28.200Z,27.17
2022-08-11T15:28:18.401Z,27.00
2022-08-11T15:31:22.240Z,26.84
2022-08-11T15:34:16.440Z,26.75
2022-08-11T15:37:09.455Z,26.61
2022-08-11T15:40:31.204Z,26.63
2022-08-11T15:43:29.202Z,26.71
2022-08-11T15:46:03.327Z,26.67
2022-08-11T15:48:35.735Z,26.65
2022-08-11T15:51:17.522Z,26.64
2022-08-11T15:53:56.844Z,26.63
2022-08-11T15:56:29.999Z,26.48
2022-08-11T15:59:42.197Z,26.39
2022-08-11T16:02:32.906Z,26.30
2022-08-11T16:05:08.268Z,26.28
2022-08-11T16:07:41.245Z,26.34
2022-08-11T16:10:21.588Z,26.43
2022-08-11T16:13:06.360Z,26.46
2022-08-11T16:15:58.020Z,26.45
2022-08-11T16:18:41.530Z,26.42
2022-08-11T16:21:33.729Z,26.36
2022-08-11T16:24:09.672Z,26.27
2022-08-11T16:27:12.425Z,26.17
2022-08-11T16:29:47.824Z,26.16
2022-08-11T16:32:22.205Z,26.08
2022-08-11T16:35:24.195Z,26.10
2022-08-11T16:38:18.070Z,26.13
2022-08-11T16:40:51.651Z,26.05
2022-08-11T16:43:42.978Z,26.03
2022-08-11T16:46:18.509Z,26.01
2022-08-11T16:48:50.729Z,26.00
2022-08-11T16:51:23.018Z,26.05
2022-08-11T16:54:04.583Z,26.02
2022-08-11T16:56:41.950Z,26.02
2022-08-11T16:59:18.585Z,26.01
2022-08-11T17:01:59.336Z,26.02
2022-08-11T17:05:02.448Z,25.99
2022-08-11T17:07:53.862Z,25.92
2022-08-11T17:10:52.790Z,25.91
2022-08-11T17:13:29.490Z,25.86
2022-08-11T17:16:08.452Z,25.82
2022-08-11T17:19:00.024Z,25.74
2022-08-11T17:21:35.993Z,25.71
2022-08-11T17:24:10.705Z,25.72
2022-08-11T17:26:58.794Z,25.75
2022-08-11T17:29:54.608Z,25.75
2022-08-11T17:32:56.830Z,25.72
2022-08-11T17:35:38.633Z,25.71
2022-08-11T17:38:21.557Z,25.67
2022-08-11T17:41:18.372Z,25.58
2022-08-11T17:44:13.229Z,25.57
2022-08-11T17:47:06.268Z,25.45
2022-08-11T17:49:39.302Z,25.42
2022-08-11T17:52:35.072Z,25.34
2022-08-11T17:55:52.434Z,25.29
2022-08-11T17:58:37.678Z,25.23
2022-08-11T18:01:10.993Z,25.17
2022-08-11T18:03:57.385Z,25.17
2022-08-11T18:06:33.931Z,25.18
2022-08-11T18:09:43.494Z,25.13
2022-08-11T18:12:33.752Z,25.08
2022-08-11T18:15:24.072Z,25.06
2022-08-11T18:18:21.799Z,25.05
2022-08-11T18:21:11.944Z,25.01
2022-08-11T18:24:05.294Z,24.96
2022-08-11T18:26:55.438Z,24.93
2022-08-11T18:29:45.634Z,24.92
2022-08-11T18:32:56.069Z,24.86
2022-08-11T18:35:47.483Z,24.74
2022-08-11T18:38:39.163Z,24.69
2022-08-11T18:41:29.813Z,24.61
2022-08-11T18:44:23.481Z,24.56
2022-08-11T18:47:13.547Z,24.50
2022-08-11T18:50:07.327Z,24.41
2022-08-11T18:53:01.197Z,24.33
2022-08-11T18:55:53.370Z,24.27
2022-08-11T18:58:50.230Z,24.26
2022-08-11T19:01:45.570Z,24.20
2022-08-11T19:04:38.168Z,24.16
2022-08-11T19:07:30.527Z,24.14
2022-08-11T19:10:21.196Z,24.10
2022-08-11T19:13:12.060Z,24.03
2022-08-11T19:16:03.587Z,24.01
2022-08-11T19:19:00.566Z,23.99
2022-08-11T19:21:51.426Z,23.96
2022-08-11T19:24:44.139Z,23.95
2022-08-11T19:27:35.318Z,23.91
2022-08-11T19:30:25.544Z,23.87
2022-08-11T19:33:57.307Z,23.82
2022-08-11T19:36:29.696Z,23.77
2022-08-11T19:39:19.798Z,23.73
2022-08-11T19:42:10.110Z,23.66
2022-08-11T19:45:00.839Z,23.61
2022-08-11T19:48:03.179Z,23.56
2022-08-11T19:51:01.893Z,23.51
2022-08-11T19:53:53.772Z,23.46
2022-08-11T19:56:44.024Z,23.39
2022-08-11T19:59:34.245Z,23.32
2022-08-11T20:02:24.600Z,23.25
2022-08-11T20:05:15.021Z,23.23
2022-08-11T20:08:06.891Z,23.20
2022-08-11T20:10:57.072Z,23.15
2022-08-11T20:13:47.930Z,23.10
2022-08-11T20:16:48.880Z,23.06
2022-08-11T20:19:56.433Z,23.01
2022-08-11T20:22:48.310Z,22.96
2022-08-11T20:25:40.740Z,22.90
2022-08-11T20:28:31.956Z,22.82
2022-08-11T20:31:23.305Z,22.74
2022-08-11T20:37:08.295Z,22.64
2022-08-11T20:39:59.541Z,22.62
2022-08-11T20:42:50.777Z,22.58
2022-08-11T20:45:55.201Z,22.53
2022-08-11T20:48:49.120Z,22.45
2022-08-11T20:51:40.342Z,22.39
2022-08-11T20:54:38.346Z,22.35
2022-08-11T20:58:00.072Z,22.28
2022-08-11T21:00:45.537Z,22.22
2022-08-11T21:03:52.334Z,22.17
2022-08-11T21:06:48.735Z,22.12
2022-08-11T21:09:58.743Z,22.04
2022-08-11T21:12:50.927Z,21.98
2022-08-11T21:16:01.262Z,21.91
2022-08-11T21:18:53.695Z,21.85
2022-08-11T21:21:45.637Z,21.78
2022-08-11T21:24:37.848Z,21.75
2022-08-11T21:27:34.183Z,21.71
2022-08-11T21:30:24.879Z,21.64
2022-08-11T21:33:15.243Z,21.59
2022-08-11T21:36:05.616Z,21.50
2022-08-11T21:38:56.226Z,21.44
2022-08-11T21:41:48.994Z,21.39
2022-08-11T21:44:39.534Z,21.36
2022-08-11T21:47:42.733Z,21.34
2022-08-11T21:50:34.251Z,21.32
2022-08-11T21:53:24.584Z,21.29
2022-08-11T21:56:15.305Z,21.25
2022-08-11T21:59:09.275Z,21.21
2022-08-11T22:01:59.471Z,21.19
2022-08-11T22:04:50.218Z,21.19
2022-08-11T22:07:41.234Z,21.18
2022-08-11T22:10:42.223Z,21.10
2022-08-11T22:13:33.037Z,21.10
2022-08-11T22:16:23.209Z,21.10
2022-08-11T22:19:13.513Z,21.02
2022-08-11T22:22:06.984Z,20.97
2022-08-11T22:24:57.253Z,20.87
2022-08-11T22:27:48.061Z,20.70
2022-08-11T22:30:37.933Z,20.68
2022-08-11T22:33:29.001Z,20.72
2022-08-11T22:36:19.526Z,20.65
2022-08-11T22:39:10.495Z,20.67
2022-08-11T22:42:00.835Z,20.67
2022-08-11T22:44:51.204Z,20.65
2022-08-11T22:47:42.366Z,20.64
2022-08-11T22:50:33.409Z,20.61
2022-08-11T22:53:23.510Z,20.59
2022-08-11T22:56:17.883Z,20.56
2022-08-11T22:59:23.859Z,20.43
2022-08-11T23:02:14.226Z,20.42
2022-08-11T23:05:04.743Z,20.46
2022-08-11T23:07:56.177Z,20.45
2022-08-11T23:10:46.247Z,20.35
2022-08-11T23:13:36.517Z,20.35
2022-08-11T23:16:26.703Z,20.38
2022-08-11T23:20:09.012Z,20.39
2022-08-11T23:22:37.818Z,20.31
2022-08-11T23:25:37.217Z,20.26
2022-08-11T23:28:28.539Z,20.23
2022-08-11T23:31:18.665Z,20.23
2022-08-11T23:34:37.003Z,20.22
2022-08-11T23:37:21.798Z,20.16
2022-08-11T23:40:11.999Z,20.08
2022-08-11T23:43:02.213Z,20.03
2022-08-11T23:45:52.349Z,19.99
2022-08-11T23:48:43.677Z,19.91
2022-08-11T23:51:40.793Z,19.85
2022-08-11T23:54:37.379Z,19.81
2022-08-11T23:57:27.491Z,19.74
